Terminal Aerodrome Forecast
Issued by NWS

Home | Current Version | Previous Version | Text Only | Print | Product List | Glossary On
Versions: 1 2 3 4 5 6 7 8 9 10 11 12 13 14 15 16 17 18 19 20 21 22 23 24 25 26 27 28 29 30
221
FTUS45 KCYS 221440 AAB
TAFLAR
TAF AMD
KLAR 221440Z 2215/2312 15012KT P6SM VCSH BKN012 OVC035
     FM221800 16013KT P6SM BKN050
      TEMPO 2219/2222 5SM TSRA BKN025CB
     FM230000 15015KT 2SM BR OVC025=

USA.gov is the U.S. government's official web portal to all federal, state and local government web resources and services.